Time;durP1;ratioP1;P1;durP2;ratioP2;P2;SDS_P1;SDS_P2;PMS_P1;PMS_P2;Temp;Humidity;BMP_temperature;BMP_pressure;BME280_temperature;BME280_humidity;BME280_pressure;Samples;Min_cycle;Max_cycle;Signal;HPM_P1;HPM_P2
2023/03/24 00:01:26;;;;;;;;;28.50;25.00;;;;;;;;117393;1183;25335;-60
2023/03/24 00:03:56;;;;;;;;;23.00;20.67;;;;;;;;117374;1180;25489;-60
2023/03/24 00:06:25;;;;;;;;;24.50;23.00;;;;;;;;117401;1183;24857;-61
2023/03/24 00:08:54;;;;;;;;;25.00;24.00;;;;;;;;117404;1181;25172;-61
2023/03/24 00:11:24;;;;;;;;;29.00;24.33;;;;;;;;117415;1183;25132;-63
2023/03/24 00:13:52;;;;;;;;;29.00;24.00;;;;;;;;117448;1180;25781;-71
2023/03/24 00:16:21;;;;;;;;;27.00;23.00;;;;;;;;117358;1192;25299;-61
2023/03/24 00:18:51;;;;;;;;;26.00;18.00;;;;;;;;117253;1183;25597;-68
2023/03/24 00:21:24;;;;;;;;;24.33;22.33;;;;;;;;117469;1182;24770;-67
2023/03/24 00:23:54;;;;;;;;;27.00;25.00;;;;;;;;117460;1182;25606;-65
2023/03/24 00:26:24;;;;;;;;;27.00;26.00;;;;;;;;117436;1181;25618;-61
2023/03/24 00:28:53;;;;;;;;;29.25;24.25;;;;;;;;117406;1183;25887;-61
2023/03/24 00:31:23;;;;;;;;;26.00;24.00;;;;;;;;117410;1182;24728;-61
2023/03/24 00:33:52;;;;;;;;;27.50;24.50;;;;;;;;117373;1194;25451;-61
2023/03/24 00:36:24;;;;;;;;;28.50;26.50;;;;;;;;117403;1194;25562;-61
2023/03/24 00:38:53;;;;;;;;;25.50;23.00;;;;;;;;117415;1180;25152;-61
2023/03/24 00:41:25;;;;;;;;;27.50;25.00;;;;;;;;117418;1194;25632;-62
2023/03/24 00:43:57;;;;;;;;;30.00;24.50;;;;;;;;117424;1185;24706;-61
2023/03/24 00:46:26;;;;;;;;;24.00;23.00;;;;;;;;117435;1193;25294;-61
2023/03/24 00:49:01;;;;;;;;;28.25;25.75;;;;;;;;117388;1192;25012;-61
2023/03/24 00:51:37;;;;;;;;;25.00;23.00;;;;;;;;117383;1181;25550;-61
2023/03/24 00:54:08;;;;;;;;;24.00;22.00;;;;;;;;117392;1193;25230;-61
2023/03/24 00:56:39;;;;;;;;;20.00;18.00;;;;;;;;117360;1181;24801;-61
2023/03/24 00:59:08;;;;;;;;;20.00;16.50;;;;;;;;117440;1181;25836;-62
2023/03/24 01:01:39;;;;;;;;;22.00;20.00;;;;;;;;117454;1181;24961;-62
2023/03/24 01:04:09;;;;;;;;;25.25;20.75;;;;;;;;117400;1194;25714;-62
2023/03/24 01:06:38;;;;;;;;;22.00;20.50;;;;;;;;117383;1180;25143;-62
2023/03/24 01:09:07;;;;;;;;;24.00;23.00;;;;;;;;117393;1186;25539;-62
2023/03/24 01:11:40;;;;;;;;;16.50;15.00;;;;;;;;117373;1180;25398;-60
2023/03/24 01:14:09;;;;;;;;;15.00;13.00;;;;;;;;117391;1186;25158;-62
2023/03/24 01:16:39;;;;;;;;;22.33;20.33;;;;;;;;117399;1181;24769;-62
2023/03/24 01:19:08;;;;;;;;;20.00;18.50;;;;;;;;117423;1180;25302;-62
2023/03/24 01:21:38;;;;;;;;;20.00;19.00;;;;;;;;117394;1180;25289;-62
2023/03/24 01:24:07;;;;;;;;;22.00;21.00;;;;;;;;117416;1187;24890;-61
2023/03/24 01:26:35;;;;;;;;;22.00;20.00;;;;;;;;117412;1182;25198;-61
2023/03/24 01:29:04;;;;;;;;;23.00;20.00;;;;;;;;117416;1180;24867;-62
2023/03/24 01:31:33;;;;;;;;;19.33;19.00;;;;;;;;117354;1194;24992;-62
2023/03/24 01:34:02;;;;;;;;;19.00;18.50;;;;;;;;117401;1194;24792;-62
2023/03/24 01:36:31;;;;;;;;;18.00;15.50;;;;;;;;117423;1181;26250;-62
2023/03/24 01:39:00;;;;;;;;;24.00;18.00;;;;;;;;117422;1180;25330;-61
2023/03/24 01:41:35;;;;;;;;;21.67;21.67;;;;;;;;117413;1194;25419;-61
2023/03/24 01:44:26;;;;;;;;;25.50;23.00;;;;;;;;117380;1184;25069;-61
2023/03/24 01:46:55;;;;;;;;;22.00;18.00;;;;;;;;117399;1194;26040;-61
2023/03/24 01:49:30;;;;;;;;;27.00;23.00;;;;;;;;117395;1187;25604;-61
2023/03/24 01:52:01;;;;;;;;;27.00;25.00;;;;;;;;117380;1186;25406;-61
2023/03/24 01:54:31;;;;;;;;;21.00;21.00;;;;;;;;117405;1180;26294;-61
2023/03/24 01:57:05;;;;;;;;;20.50;17.50;;;;;;;;117370;1180;25810;-61
2023/03/24 01:59:36;;;;;;;;;24.00;23.00;;;;;;;;117406;1180;25654;-62
2023/03/24 02:02:05;;;;;;;;;22.50;20.75;;;;;;;;117394;1186;24972;-63
2023/03/24 02:04:39;;;;;;;;;30.00;22.00;;;;;;;;117426;1193;24832;-62
2023/03/24 02:07:13;;;;;;;;;21.00;18.50;;;;;;;;117415;1184;25620;-62
2023/03/24 02:09:41;;;;;;;;;24.00;21.50;;;;;;;;117406;1185;25296;-61
2023/03/24 02:12:10;;;;;;;;;23.50;22.50;;;;;;;;117372;1180;24816;-61
2023/03/24 02:14:39;;;;;;;;;24.00;21.00;;;;;;;;117378;1180;25109;-62
2023/03/24 02:17:25;;;;;;;;;20.50;18.00;;;;;;;;117363;1181;25641;-61
2023/03/24 02:20:25;;;;;;;;;25.00;24.00;;;;;;;;117565;1194;24860;-65
2023/03/24 02:23:08;;;;;;;;;25.50;24.00;;;;;;;;117527;1180;25032;-62
2023/03/24 02:26:05;;;;;;;;;29.00;26.00;;;;;;;;117376;1185;25665;-62
2023/03/24 02:28:43;;;;;;;;;31.00;25.67;;;;;;;;117429;1194;25916;-62
2023/03/24 02:31:36;;;;;;;;;24.00;21.00;;;;;;;;117368;1180;25063;-61
2023/03/24 02:34:39;;;;;;;;;27.50;21.50;;;;;;;;117385;1180;24977;-62
2023/03/24 02:37:26;;;;;;;;;28.00;27.00;;;;;;;;117334;1190;25375;-62
2023/03/24 02:40:02;;;;;;;;;27.67;24.00;;;;;;;;117409;1189;25332;-62
2023/03/24 02:42:53;;;;;;;;;32.00;25.00;;;;;;;;117380;1187;25472;-62
2023/03/24 02:45:35;;;;;;;;;32.00;25.00;;;;;;;;117395;1194;24857;-62
2023/03/24 02:48:03;;;;;;;;;24.67;24.00;;;;;;;;117412;1194;25543;-62
2023/03/24 02:50:35;;;;;;;;;24.50;21.50;;;;;;;;117386;1183;24832;-63
2023/03/24 02:53:13;;;;;;;;;23.50;22.00;;;;;;;;117384;1181;25296;-61
2023/03/24 02:56:09;;;;;;;;;28.00;22.50;;;;;;;;117408;1181;26395;-62
2023/03/24 02:58:39;;;;;;;;;23.00;20.00;;;;;;;;117429;1189;25460;-62
2023/03/24 03:01:27;;;;;;;;;22.00;19.00;;;;;;;;117308;1180;24838;-63
2023/03/24 03:04:38;;;;;;;;;23.00;20.67;;;;;;;;117394;1182;25460;-60
2023/03/24 03:07:09;;;;;;;;;22.33;20.33;;;;;;;;117237;1180;24799;-60
2023/03/24 03:09:43;;;;;;;;;20.50;17.00;;;;;;;;117402;1186;25350;-62
2023/03/24 03:12:13;;;;;;;;;22.67;20.00;;;;;;;;117396;1194;24839;-62
2023/03/24 03:14:55;;;;;;;;;23.00;19.00;;;;;;;;117369;1193;25462;-60
2023/03/24 03:17:29;;;;;;;;;26.33;22.67;;;;;;;;117417;1180;25006;-62
2023/03/24 03:20:10;;;;;;;;;21.50;21.50;;;;;;;;117429;1180;24965;-63
2023/03/24 03:22:48;;;;;;;;;20.00;18.00;;;;;;;;117435;1180;25311;-62
2023/03/24 03:25:24;;;;;;;;;21.50;18.00;;;;;;;;117410;1194;25349;-62
2023/03/24 03:27:55;;;;;;;;;19.00;17.50;;;;;;;;117421;1182;25653;-62
2023/03/24 03:30:26;;;;;;;;;19.50;19.50;;;;;;;;117370;1184;25153;-62
2023/03/24 03:33:07;;;;;;;;;32.00;25.50;;;;;;;;117392;1181;24964;-62
2023/03/24 03:35:45;;;;;;;;;20.00;19.00;;;;;;;;117398;1180;24878;-62
2023/03/24 03:38:16;;;;;;;;;19.00;18.00;;;;;;;;117404;1194;25581;-63
2023/03/24 03:40:55;;;;;;;;;23.00;20.50;;;;;;;;117449;1194;25779;-62
2023/03/24 03:43:25;;;;;;;;;23.50;21.50;;;;;;;;117409;1180;24843;-65
2023/03/24 03:45:54;;;;;;;;;23.00;20.00;;;;;;;;117472;1183;25155;-71
2023/03/24 03:48:25;;;;;;;;;21.00;20.00;;;;;;;;117460;1181;25278;-63
2023/03/24 03:50:55;;;;;;;;;29.00;24.00;;;;;;;;117384;1183;25623;-61
2023/03/24 03:53:52;;;;;;;;;40.00;33.00;;;;;;;;117411;1194;25166;-59
2023/03/24 03:56:27;;;;;;;;;44.50;35.00;;;;;;;;117401;1189;25570;-59
2023/03/24 03:58:55;;;;;;;;;49.00;39.00;;;;;;;;117406;1194;25311;-60
2023/03/24 04:01:26;;;;;;;;;44.00;35.50;;;;;;;;117362;1181;24722;-59
2023/03/24 04:04:19;;;;;;;;;44.00;38.50;;;;;;;;117419;1184;25093;-60
2023/03/24 04:06:56;;;;;;;;;50.33;40.67;;;;;;;;117403;1190;25415;-60
2023/03/24 04:09:46;;;;;;;;;52.00;41.00;;;;;;;;117408;1182;25329;-59
2023/03/24 04:12:32;;;;;;;;;49.00;41.00;;;;;;;;117445;1180;25174;-60
2023/03/24 04:15:39;;;;;;;;;54.33;43.33;;;;;;;;117436;1180;25461;-59
2023/03/24 04:18:18;;;;;;;;;48.00;36.00;;;;;;;;117386;1180;24741;-59
2023/03/24 04:21:14;;;;;;;;;53.00;40.00;;;;;;;;117417;1181;24959;-60
2023/03/24 04:24:12;;;;;;;;;57.50;43.50;;;;;;;;117382;1180;25423;-60
2023/03/24 04:26:59;;;;;;;;;48.00;40.00;;;;;;;;117391;1193;24920;-60
2023/03/24 04:29:45;;;;;;;;;46.33;37.67;;;;;;;;117425;1180;25034;-62
2023/03/24 04:32:29;;;;;;;;;45.50;36.00;;;;;;;;117408;1181;25514;-61
2023/03/24 04:35:09;;;;;;;;;47.50;34.00;;;;;;;;117389;1194;24916;-61
2023/03/24 04:37:38;;;;;;;;;38.00;33.00;;;;;;;;117395;1180;25010;-61
2023/03/24 04:40:10;;;;;;;;;33.00;30.00;;;;;;;;117382;1184;25329;-61
2023/03/24 04:42:57;;;;;;;;;40.33;33.33;;;;;;;;117462;1181;25513;-63
2023/03/24 04:45:26;;;;;;;;;49.00;38.00;;;;;;;;117451;1194;25443;-63
2023/03/24 04:47:57;;;;;;;;;48.00;39.00;;;;;;;;117394;1194;25655;-61
2023/03/24 04:50:33;;;;;;;;;47.00;37.00;;;;;;;;117394;1183;25068;-61
2023/03/24 04:53:02;;;;;;;;;44.00;35.00;;;;;;;;117377;1180;25407;-61
2023/03/24 04:55:49;;;;;;;;;33.50;30.50;;;;;;;;117417;1187;25682;-61
2023/03/24 04:58:19;;;;;;;;;36.00;32.00;;;;;;;;117431;1190;25340;-61
2023/03/24 05:00:48;;;;;;;;;37.00;31.00;;;;;;;;117456;1194;24822;-60
2023/03/24 05:03:17;;;;;;;;;42.50;32.50;;;;;;;;117423;1180;25192;-62
2023/03/24 05:05:48;;;;;;;;;39.50;33.00;;;;;;;;117414;1194;25377;-59
2023/03/24 05:08:17;;;;;;;;;33.00;30.00;;;;;;;;117407;1182;25169;-60
2023/03/24 05:10:46;;;;;;;;;37.00;31.00;;;;;;;;117409;1194;24734;-60
2023/03/24 05:13:15;;;;;;;;;39.00;32.00;;;;;;;;117428;1194;25284;-61
2023/03/24 05:15:43;;;;;;;;;42.00;33.00;;;;;;;;117421;1194;25466;-67
2023/03/24 05:18:12;;;;;;;;;47.00;37.00;;;;;;;;117391;1193;24936;-60
2023/03/24 05:20:40;;;;;;;;;47.00;37.00;;;;;;;;117402;1180;24770;-62
2023/03/24 05:23:09;;;;;;;;;45.00;38.00;;;;;;;;117395;1183;24949;-61
2023/03/24 05:25:37;;;;;;;;;50.00;39.00;;;;;;;;117420;1183;25324;-60
2023/03/24 05:28:06;;;;;;;;;48.50;39.00;;;;;;;;117414;1180;25026;-60
2023/03/24 05:30:34;;;;;;;;;50.00;40.50;;;;;;;;117368;1183;24802;-65
2023/03/24 05:33:03;;;;;;;;;47.00;37.00;;;;;;;;117400;1180;24728;-64
2023/03/24 05:35:32;;;;;;;;;44.00;38.00;;;;;;;;117415;1181;25158;-64
2023/03/24 05:38:00;;;;;;;;;55.00;41.50;;;;;;;;117368;1194;24777;-61
2023/03/24 05:40:28;;;;;;;;;50.00;41.00;;;;;;;;117416;1180;25027;-60
2023/03/24 05:42:57;;;;;;;;;48.00;38.00;;;;;;;;117398;1180;25583;-65
2023/03/24 05:45:26;;;;;;;;;44.33;35.33;;;;;;;;117440;1190;25205;-63
2023/03/24 05:47:54;;;;;;;;;49.50;40.50;;;;;;;;117429;1193;25450;-64
2023/03/24 05:50:23;;;;;;;;;46.00;39.00;;;;;;;;117413;1194;25571;-63
2023/03/24 05:52:51;;;;;;;;;53.00;41.00;;;;;;;;117405;1194;25547;-64
2023/03/24 05:55:20;;;;;;;;;44.50;33.50;;;;;;;;117422;1181;25349;-64
2023/03/24 05:57:50;;;;;;;;;51.50;40.50;;;;;;;;117382;1183;25092;-65
2023/03/24 06:00:19;;;;;;;;;53.00;42.50;;;;;;;;117452;1195;25650;-62
2023/03/24 06:02:48;;;;;;;;;39.00;30.00;;;;;;;;117409;1182;25338;-62
2023/03/24 06:05:16;;;;;;;;;46.33;37.00;;;;;;;;117359;1183;24891;-64
2023/03/24 06:07:45;;;;;;;;;40.00;33.00;;;;;;;;117333;1182;25564;-63
2023/03/24 06:10:17;;;;;;;;;39.00;32.00;;;;;;;;117355;1184;25233;-62
2023/03/24 06:12:45;;;;;;;;;43.00;33.00;;;;;;;;117329;1183;25246;-64
2023/03/24 06:15:16;;;;;;;;;42.00;31.00;;;;;;;;117342;1194;24801;-61
2023/03/24 06:17:45;;;;;;;;;37.50;29.00;;;;;;;;117352;1184;25282;-62
2023/03/24 06:20:14;;;;;;;;;40.67;33.00;;;;;;;;117365;1182;25423;-64
2023/03/24 06:22:46;;;;;;;;;38.50;33.00;;;;;;;;117350;1187;25062;-64
2023/03/24 06:25:16;;;;;;;;;32.50;30.50;;;;;;;;117314;1195;24743;-63
2023/03/24 06:27:45;;;;;;;;;37.00;31.00;;;;;;;;117383;1182;24723;-63
2023/03/24 06:30:15;;;;;;;;;31.00;30.00;;;;;;;;117404;1182;24966;-63
2023/03/24 06:32:46;;;;;;;;;34.00;30.00;;;;;;;;117342;1190;25531;-63
2023/03/24 06:35:15;;;;;;;;;36.00;32.00;;;;;;;;117356;1184;24683;-61
2023/03/24 06:37:44;;;;;;;;;45.00;37.00;;;;;;;;117369;1183;24802;-62
2023/03/24 06:40:15;;;;;;;;;52.00;41.00;;;;;;;;117402;1187;25539;-61
2023/03/24 06:42:43;;;;;;;;;76.50;64.00;;;;;;;;117387;1182;25074;-63
2023/03/24 06:45:11;;;;;;;;;86.00;80.00;;;;;;;;117356;1192;24913;-63
2023/03/24 06:47:40;;;;;;;;;69.00;53.50;;;;;;;;117345;1184;25064;-61
2023/03/24 06:50:09;;;;;;;;;65.00;49.00;;;;;;;;117370;1183;25508;-62
2023/03/24 06:52:38;;;;;;;;;57.00;46.00;;;;;;;;117452;1195;25118;-64
2023/03/24 06:55:07;;;;;;;;;55.00;47.00;;;;;;;;117360;1182;24888;-63
2023/03/24 06:57:35;;;;;;;;;65.00;48.00;;;;;;;;117448;1181;25414;-64
2023/03/24 07:00:05;;;;;;;;;56.00;44.00;;;;;;;;117392;1182;24729;-66
2023/03/24 07:02:34;;;;;;;;;57.00;44.00;;;;;;;;117382;1190;25606;-65
2023/03/24 07:05:11;;;;;;;;;51.00;41.67;;;;;;;;117457;1180;25649;-66
2023/03/24 07:07:40;;;;;;;;;51.00;39.00;;;;;;;;117409;1180;25705;-64
2023/03/24 07:10:12;;;;;;;;;50.00;40.00;;;;;;;;117427;1194;25257;-64
2023/03/24 07:12:41;;;;;;;;;50.00;40.00;;;;;;;;117445;1186;24964;-65
2023/03/24 07:15:10;;;;;;;;;50.00;41.00;;;;;;;;117416;1181;24787;-65
2023/03/24 07:17:40;;;;;;;;;54.00;40.50;;;;;;;;117422;1180;25262;-64
2023/03/24 07:20:09;;;;;;;;;48.50;40.50;;;;;;;;117488;1181;25035;-64
2023/03/24 07:22:37;;;;;;;;;52.00;42.00;;;;;;;;117430;1183;25031;-66
2023/03/24 07:25:07;;;;;;;;;46.00;36.50;;;;;;;;117434;1180;24701;-65
2023/03/24 07:27:36;;;;;;;;;41.50;34.00;;;;;;;;117458;1180;25632;-63
2023/03/24 07:30:08;;;;;;;;;48.00;41.00;;;;;;;;117397;1193;25513;-64
2023/03/24 07:32:38;;;;;;;;;49.00;37.00;;;;;;;;117352;1180;25650;-62
2023/03/24 07:35:12;;;;;;;;;48.00;40.00;;;;;;;;117404;1180;25346;-62
2023/03/24 07:37:40;;;;;;;;;47.00;37.00;;;;;;;;117425;1180;25516;-62
2023/03/24 07:40:13;;;;;;;;;38.50;32.50;;;;;;;;117437;1193;25608;-62
2023/03/24 07:42:42;;;;;;;;;43.00;32.00;;;;;;;;117403;1194;25452;-63
2023/03/24 07:45:12;;;;;;;;;47.00;36.00;;;;;;;;117475;1180;25022;-63
2023/03/24 07:47:43;;;;;;;;;45.50;36.00;;;;;;;;117458;1190;24687;-62
2023/03/24 07:50:12;;;;;;;;;48.00;35.00;;;;;;;;117456;1180;24948;-61
2023/03/24 07:52:43;;;;;;;;;37.50;31.00;;;;;;;;117474;1180;24685;-63
2023/03/24 07:55:12;;;;;;;;;39.50;32.00;;;;;;;;117434;1191;24868;-63
2023/03/24 07:57:42;;;;;;;;;43.00;35.50;;;;;;;;117446;1183;25268;-62
2023/03/24 08:00:14;;;;;;;;;38.50;31.50;;;;;;;;117394;1194;25586;-65
2023/03/24 08:02:45;;;;;;;;;43.00;36.00;;;;;;;;117372;1184;25675;-63
2023/03/24 08:05:14;;;;;;;;;43.00;36.00;;;;;;;;117431;1193;25145;-63
2023/03/24 08:07:49;;;;;;;;;39.50;33.00;;;;;;;;117441;1194;24835;-63
2023/03/24 08:10:19;;;;;;;;;41.00;33.00;;;;;;;;117446;1180;24706;-63
2023/03/24 08:12:48;;;;;;;;;44.00;33.00;;;;;;;;117474;1182;25379;-63
2023/03/24 08:15:16;;;;;;;;;43.00;34.00;;;;;;;;117428;1194;24876;-63
2023/03/24 08:17:47;;;;;;;;;39.00;32.00;;;;;;;;117381;1184;25461;-63
2023/03/24 08:20:17;;;;;;;;;44.50;34.00;;;;;;;;117459;1182;25175;-63
2023/03/24 08:22:48;;;;;;;;;39.00;33.00;;;;;;;;117457;1183;25692;-63
2023/03/24 08:25:18;;;;;;;;;35.00;30.00;;;;;;;;117411;1183;25377;-63
2023/03/24 08:27:47;;;;;;;;;37.50;32.50;;;;;;;;117367;1183;25182;-62
2023/03/24 08:30:18;;;;;;;;;41.00;33.00;;;;;;;;117462;1180;25518;-62
2023/03/24 08:32:50;;;;;;;;;36.00;33.00;;;;;;;;117489;1181;25536;-63
2023/03/24 08:35:21;;;;;;;;;36.00;32.00;;;;;;;;117474;1186;24792;-63
2023/03/24 08:37:50;;;;;;;;;37.00;33.00;;;;;;;;117469;1180;25429;-62
2023/03/24 08:40:22;;;;;;;;;43.00;34.00;;;;;;;;117478;1191;25179;-62
2023/03/24 08:42:59;;;;;;;;;45.00;34.00;;;;;;;;117413;1180;25623;-63
2023/03/24 08:45:29;;;;;;;;;36.00;33.00;;;;;;;;117428;1190;24874;-63
2023/03/24 08:48:00;;;;;;;;;40.50;33.00;;;;;;;;117432;1194;24821;-62
2023/03/24 08:50:33;;;;;;;;;39.00;31.50;;;;;;;;117436;1183;25430;-62
2023/03/24 08:53:02;;;;;;;;;40.50;30.00;;;;;;;;117413;1183;25256;-63
2023/03/24 08:55:31;;;;;;;;;42.50;35.50;;;;;;;;117459;1181;25277;-63
2023/03/24 08:58:00;;;;;;;;;;;;;;;;;;117463;1181;25341;-63
2023/03/24 09:00:28;;;;;;;;;36.00;30.00;;;;;;;;117448;1180;25651;-63
2023/03/24 09:02:57;;;;;;;;;39.00;32.00;;;;;;;;117474;1181;25536;-62
2023/03/24 09:05:26;;;;;;;;;43.33;33.00;;;;;;;;117447;1193;26505;-62
2023/03/24 09:08:12;;;;;;;;;32.00;30.67;;;;;;;;117444;1180;26988;-63
2023/03/24 09:10:42;;;;;;;;;41.00;33.00;;;;;;;;117419;1190;25126;-63
2023/03/24 09:13:10;;;;;;;;;35.00;29.00;;;;;;;;117435;1181;24861;-62
2023/03/24 09:15:39;;;;;;;;;42.50;34.50;;;;;;;;117482;1181;24965;-63
2023/03/24 09:18:08;;;;;;;;;36.00;32.00;;;;;;;;117451;1190;25046;-63
2023/03/24 09:20:36;;;;;;;;;37.25;30.00;;;;;;;;117433;1194;25177;-63
2023/03/24 09:23:05;;;;;;;;;31.00;28.50;;;;;;;;117415;1180;25232;-63
2023/03/24 09:25:33;;;;;;;;;34.50;31.50;;;;;;;;117443;1181;25004;-63
2023/03/24 09:28:02;;;;;;;;;19.00;17.50;;;;;;;;117473;1194;25908;-61
2023/03/24 09:30:30;;;;;;;;;35.00;31.00;;;;;;;;117444;1194;25098;-62
2023/03/24 09:33:03;;;;;;;;;32.00;29.00;;;;;;;;117496;1181;24984;-62
2023/03/24 09:35:31;;;;;;;;;35.00;30.00;;;;;;;;117466;1194;24956;-63
2023/03/24 09:38:00;;;;;;;;;32.00;29.00;;;;;;;;117456;1180;25046;-63
2023/03/24 09:40:31;;;;;;;;;39.00;32.00;;;;;;;;117477;1181;25153;-63
2023/03/24 09:43:15;;;;;;;;;38.00;31.00;;;;;;;;117478;1180;24794;-63
2023/03/24 09:45:51;;;;;;;;;36.00;32.00;;;;;;;;117444;1180;25630;-63
2023/03/24 09:48:38;;;;;;;;;33.50;28.50;;;;;;;;117452;1181;24711;-62
2023/03/24 09:51:22;;;;;;;;;37.50;32.00;;;;;;;;117421;1181;25216;-62
2023/03/24 09:54:12;;;;;;;;;39.25;32.50;;;;;;;;117500;1181;24836;-62
2023/03/24 09:56:44;;;;;;;;;35.50;32.00;;;;;;;;117445;1181;25195;-62
2023/03/24 09:59:17;;;;;;;;;34.00;30.50;;;;;;;;117480;1181;24867;-62
2023/03/24 10:01:46;;;;;;;;;32.00;28.50;;;;;;;;117460;1180;25076;-62
2023/03/24 10:04:23;;;;;;;;;39.00;31.00;;;;;;;;117484;1180;25588;-62
2023/03/24 10:07:12;;;;;;;;;29.50;23.00;;;;;;;;117455;1180;25579;-62
2023/03/24 10:09:45;;;;;;;;;29.00;26.50;;;;;;;;117435;1180;24727;-62
2023/03/24 10:12:36;;;;;;;;;34.00;30.00;;;;;;;;117450;1180;25528;-62
2023/03/24 10:15:10;;;;;;;;;39.00;32.00;;;;;;;;117441;1193;25452;-62
2023/03/24 10:18:11;;;;;;;;;36.00;30.00;;;;;;;;117446;1180;25122;-62
2023/03/24 10:20:57;;;;;;;;;33.00;31.50;;;;;;;;117429;1180;25441;-62
2023/03/24 10:23:40;;;;;;;;;39.67;31.00;;;;;;;;117435;1181;25620;-61
2023/03/24 10:26:16;;;;;;;;;30.00;26.50;;;;;;;;117454;1181;24989;-62
2023/03/24 10:28:48;;;;;;;;;37.00;30.00;;;;;;;;117444;1181;25442;-62
2023/03/24 10:31:20;;;;;;;;;34.50;31.00;;;;;;;;117439;1180;25957;-62
2023/03/24 10:33:49;;;;;;;;;34.50;29.50;;;;;;;;117425;1181;24680;-62
2023/03/24 10:36:19;;;;;;;;;30.00;29.00;;;;;;;;117484;1181;25248;-62
2023/03/24 10:38:48;;;;;;;;;36.50;31.00;;;;;;;;117449;1181;25177;-62
2023/03/24 10:41:23;;;;;;;;;42.00;32.00;;;;;;;;117481;1194;25180;-62
2023/03/24 10:43:53;;;;;;;;;28.00;25.50;;;;;;;;117498;1180;25201;-62
2023/03/24 10:46:25;;;;;;;;;28.67;27.33;;;;;;;;117433;1186;25849;-62
2023/03/24 10:49:18;;;;;;;;;32.50;29.00;;;;;;;;117455;1194;25353;-61
2023/03/24 10:51:55;;;;;;;;;32.00;26.00;;;;;;;;117441;1181;25364;-62
2023/03/24 10:54:25;;;;;;;;;34.00;29.00;;;;;;;;117426;1185;25265;-62
2023/03/24 10:56:56;;;;;;;;;29.00;28.00;;;;;;;;117464;1194;25287;-63
2023/03/24 10:59:35;;;;;;;;;30.00;28.00;;;;;;;;117458;1181;25343;-61
2023/03/24 11:02:10;;;;;;;;;35.00;26.50;;;;;;;;117470;1180;25456;-62
2023/03/24 11:04:46;;;;;;;;;32.50;26.50;;;;;;;;117457;1190;24829;-61
2023/03/24 11:07:19;;;;;;;;;29.33;26.67;;;;;;;;117446;1186;24719;-62
2023/03/24 11:10:05;;;;;;;;;22.00;19.50;;;;;;;;117440;1194;24835;-61
2023/03/24 11:12:39;;;;;;;;;36.00;31.00;;;;;;;;117460;1180;25382;-62
2023/03/24 11:15:31;;;;;;;;;31.67;27.67;;;;;;;;117464;1183;25051;-62
2023/03/24 11:18:12;;;;;;;;;32.50;30.00;;;;;;;;117444;1183;24952;-63
2023/03/24 11:20:47;;;;;;;;;35.00;30.00;;;;;;;;117478;1181;24939;-62
2023/03/24 11:23:24;;;;;;;;;31.00;29.00;;;;;;;;117463;1181;25463;-62
2023/03/24 11:26:20;;;;;;;;;29.50;27.50;;;;;;;;117470;1181;25113;-62
2023/03/24 11:28:55;;;;;;;;;32.00;27.50;;;;;;;;117482;1181;26342;-62
2023/03/24 11:31:29;;;;;;;;;37.50;28.00;;;;;;;;117453;1186;25455;-63
2023/03/24 11:34:02;;;;;;;;;35.00;29.00;;;;;;;;117451;1180;24757;-63
2023/03/24 11:36:33;;;;;;;;;33.00;30.00;;;;;;;;117395;1184;26046;-63
2023/03/24 11:39:11;;;;;;;;;37.00;27.50;;;;;;;;117436;1180;25513;-63
2023/03/24 11:41:59;;;;;;;;;33.00;30.00;;;;;;;;117471;1186;25118;-61
2023/03/24 11:44:37;;;;;;;;;34.00;30.00;;;;;;;;117456;1182;25538;-63
2023/03/24 11:47:23;;;;;;;;;34.00;29.00;;;;;;;;117468;1180;25002;-63
2023/03/24 11:50:11;;;;;;;;;26.00;24.50;;;;;;;;117458;1194;24686;-60
2023/03/24 11:52:46;;;;;;;;;30.00;25.33;;;;;;;;117417;1183;25158;-61
2023/03/24 11:55:17;;;;;;;;;32.00;28.00;;;;;;;;117440;1182;24913;-62
2023/03/24 11:58:00;;;;;;;;;27.00;25.00;;;;;;;;117449;1184;25353;-62
2023/03/24 12:00:41;;;;;;;;;33.00;29.50;;;;;;;;117441;1183;24843;-61
2023/03/24 12:03:24;;;;;;;;;33.00;24.00;;;;;;;;117367;1182;25250;-61
2023/03/24 12:06:10;;;;;;;;;32.00;28.00;;;;;;;;117459;1184;25349;-62
2023/03/24 12:09:12;;;;;;;;;32.50;28.00;;;;;;;;117428;1180;25228;-62
2023/03/24 12:12:04;;;;;;;;;28.00;28.00;;;;;;;;117439;1184;25508;-62
2023/03/24 12:15:13;;;;;;;;;28.50;26.00;;;;;;;;117400;1182;25420;-62
2023/03/24 12:18:01;;;;;;;;;28.50;25.50;;;;;;;;117443;1180;25303;-62
2023/03/24 12:20:33;;;;;;;;;33.00;31.00;;;;;;;;117406;1185;25485;-62
2023/03/24 12:23:14;;;;;;;;;23.50;23.00;;;;;;;;117429;1181;25754;-62
2023/03/24 12:26:02;;;;;;;;;27.50;25.50;;;;;;;;117433;1194;24834;-61
2023/03/24 12:28:56;;;;;;;;;31.00;27.00;;;;;;;;117407;1180;25434;-61
2023/03/24 12:31:42;;;;;;;;;29.00;27.00;;;;;;;;117458;1180;24964;-61
2023/03/24 12:34:45;;;;;;;;;30.50;27.50;;;;;;;;117459;1191;25537;-61
2023/03/24 12:37:20;;;;;;;;;30.00;26.50;;;;;;;;117452;1180;25052;-61
2023/03/24 12:40:01;;;;;;;;;26.00;26.00;;;;;;;;117437;1180;25460;-61
2023/03/24 12:42:35;;;;;;;;;31.00;28.33;;;;;;;;117435;1194;24725;-61
2023/03/24 12:45:25;;;;;;;;;28.67;26.00;;;;;;;;117428;1181;24904;-62
2023/03/24 12:48:05;;;;;;;;;31.50;28.00;;;;;;;;117465;1183;25541;-62
2023/03/24 12:50:49;;;;;;;;;35.50;26.50;;;;;;;;117474;1182;24844;-62
2023/03/24 12:53:46;;;;;;;;;33.00;28.00;;;;;;;;117429;1183;24747;-62
2023/03/24 12:56:22;;;;;;;;;32.33;30.33;;;;;;;;117412;1184;24895;-62
2023/03/24 12:59:07;;;;;;;;;31.00;28.00;;;;;;;;117350;1190;24911;-62
2023/03/24 13:01:49;;;;;;;;;25.50;25.50;;;;;;;;117508;1183;25272;-61
2023/03/24 13:04:25;;;;;;;;;30.00;26.00;;;;;;;;117512;1189;25412;-63
2023/03/24 13:07:10;;;;;;;;;34.00;28.00;;;;;;;;117427;1180;24876;-67
2023/03/24 13:10:19;;;;;;;;;28.00;25.00;;;;;;;;117412;1180;25735;-66
2023/03/24 13:13:19;;;;;;;;;29.00;24.00;;;;;;;;117100;1184;25246;-62
2023/03/24 13:15:55;;;;;;;;;30.00;27.00;;;;;;;;117399;1194;25154;-62
2023/03/24 13:18:31;;;;;;;;;27.67;25.00;;;;;;;;117402;1180;25142;-66
2023/03/24 13:21:06;;;;;;;;;26.50;24.00;;;;;;;;117432;1180;25122;-62
2023/03/24 13:23:37;;;;;;;;;22.00;21.00;;;;;;;;117462;1180;25084;-62
2023/03/24 13:26:25;;;;;;;;;24.33;20.67;;;;;;;;117373;1180;25072;-62
2023/03/24 13:28:59;;;;;;;;;26.00;24.00;;;;;;;;117424;1181;24858;-62
2023/03/24 13:31:35;;;;;;;;;28.00;22.50;;;;;;;;117404;1180;24775;-62
2023/03/24 13:34:05;;;;;;;;;31.00;24.00;;;;;;;;117405;1180;25036;-62
2023/03/24 13:36:46;;;;;;;;;25.00;23.00;;;;;;;;117383;1183;25409;-62
2023/03/24 13:39:19;;;;;;;;;34.00;27.00;;;;;;;;117341;1181;25151;-62
2023/03/24 13:41:50;;;;;;;;;23.33;19.00;;;;;;;;117400;1181;25032;-62
2023/03/24 13:44:38;;;;;;;;;26.00;24.00;;;;;;;;117435;1189;24909;-62
2023/03/24 13:47:12;;;;;;;;;23.00;21.00;;;;;;;;117453;1194;25308;-64
2023/03/24 13:49:51;;;;;;;;;25.00;23.00;;;;;;;;117401;1188;24993;-62
2023/03/24 13:52:50;;;;;;;;;28.00;22.50;;;;;;;;117415;1180;25173;-62
2023/03/24 13:55:26;;;;;;;;;25.50;24.00;;;;;;;;117392;1193;25540;-62
2023/03/24 13:58:09;;;;;;;;;26.50;24.00;;;;;;;;117427;1180;24707;-65
2023/03/24 14:01:15;;;;;;;;;24.00;23.00;;;;;;;;117488;1194;25126;-67
2023/03/24 14:03:46;;;;;;;;;24.33;19.67;;;;;;;;117385;1185;25662;-65
2023/03/24 14:06:16;;;;;;;;;23.00;22.00;;;;;;;;117406;1180;25655;-61
2023/03/24 14:08:50;;;;;;;;;24.00;20.00;;;;;;;;117393;1181;25478;-61
2023/03/24 14:11:34;;;;;;;;;21.50;20.00;;;;;;;;117421;1180;25600;-61
2023/03/24 14:14:24;;;;;;;;;23.50;22.50;;;;;;;;117454;1181;25226;-61
2023/03/24 14:17:07;;;;;;;;;29.50;27.50;;;;;;;;117404;1194;25329;-61
2023/03/24 14:19:39;;;;;;;;;16.67;15.00;;;;;;;;117389;1193;24770;-61
2023/03/24 14:22:20;;;;;;;;;19.00;16.00;;;;;;;;117419;1181;25234;-61
2023/03/24 14:25:05;;;;;;;;;30.00;26.00;;;;;;;;117405;1194;25260;-61
2023/03/24 14:27:39;;;;;;;;;25.00;21.00;;;;;;;;117397;1181;25378;-61
2023/03/24 14:30:25;;;;;;;;;27.00;20.00;;;;;;;;117397;1180;25448;-62
2023/03/24 14:32:56;;;;;;;;;24.50;22.50;;;;;;;;117424;1180;26393;-62
2023/03/24 14:35:44;;;;;;;;;25.00;23.33;;;;;;;;117411;1193;25115;-62
2023/03/24 14:38:19;;;;;;;;;27.00;20.00;;;;;;;;117412;1194;24736;-62
2023/03/24 14:40:49;;;;;;;;;19.00;18.00;;;;;;;;117415;1180;25240;-62
2023/03/24 14:43:21;;;;;;;;;22.00;21.00;;;;;;;;117361;1187;24962;-62
2023/03/24 14:46:05;;;;;;;;;23.00;22.00;;;;;;;;117439;1180;24754;-62
2023/03/24 14:48:58;;;;;;;;;21.00;21.00;;;;;;;;117331;1194;25303;-62
2023/03/24 14:51:54;;;;;;;;;21.00;17.50;;;;;;;;117410;1194;24763;-60